sensor_id;sensor_type;location;lat;lon;timestamp;pressure;altitude;pressure_sealevel;temperature;humidity
21395;BME280;10858;42.714;23.180;2023-02-02T00:01:25;94485.75;;;5.41;53.28
21395;BME280;10858;42.714;23.180;2023-02-02T00:03:52;94475.47;;;5.24;53.15
21395;BME280;10858;42.714;23.180;2023-02-02T00:06:20;94481.88;;;5.19;52.77
21395;BME280;10858;42.714;23.180;2023-02-02T00:08:47;94486.28;;;5.06;53.74
21395;BME280;10858;42.714;23.180;2023-02-02T00:11:14;94484.69;;;5.04;54.06
21395;BME280;10858;42.714;23.180;2023-02-02T00:13:40;94496.34;;;5.00;54.60
21395;BME280;10858;42.714;23.180;2023-02-02T00:18:56;94488.28;;;5.03;54.37
21395;BME280;10858;42.714;23.180;2023-02-02T00:21:23;94489.66;;;5.08;53.53
21395;BME280;10858;42.714;23.180;2023-02-02T00:23:50;94493.38;;;4.92;54.22
21395;BME280;10858;42.714;23.180;2023-02-02T00:26:17;94496.56;;;4.97;54.13
21395;BME280;10858;42.714;23.180;2023-02-02T00:28:43;94506.16;;;5.10;53.81
21395;BME280;10858;42.714;23.180;2023-02-02T00:31:10;94511.97;;;5.15;54.35
21395;BME280;10858;42.714;23.180;2023-02-02T00:33:36;94511.53;;;5.09;54.18
21395;BME280;10858;42.714;23.180;2023-02-02T00:36:03;94507.50;;;5.03;54.78
21395;BME280;10858;42.714;23.180;2023-02-02T00:38:31;94496.25;;;4.75;56.11
21395;BME280;10858;42.714;23.180;2023-02-02T00:40:57;94502.06;;;4.66;56.29
21395;BME280;10858;42.714;23.180;2023-02-02T00:43:23;94498.53;;;4.67;55.46
21395;BME280;10858;42.714;23.180;2023-02-02T00:45:49;94493.44;;;4.64;56.11
21395;BME280;10858;42.714;23.180;2023-02-02T00:48:16;94492.72;;;4.88;55.67
21395;BME280;10858;42.714;23.180;2023-02-02T00:50:42;94497.78;;;4.91;56.56
21395;BME280;10858;42.714;23.180;2023-02-02T00:53:08;94493.19;;;4.95;55.15
21395;BME280;10858;42.714;23.180;2023-02-02T00:55:34;94488.19;;;5.17;55.47
21395;BME280;10858;42.714;23.180;2023-02-02T00:58:00;94475.63;;;5.35;54.41
21395;BME280;10858;42.714;23.180;2023-02-02T01:00:27;94477.97;;;5.52;53.66
21395;BME280;10858;42.714;23.180;2023-02-02T01:02:54;94481.16;;;5.57;53.42
21395;BME280;10858;42.714;23.180;2023-02-02T01:05:21;94478.59;;;5.55;53.67
21395;BME280;10858;42.714;23.180;2023-02-02T01:07:48;94474.06;;;5.45;53.04
21395;BME280;10858;42.714;23.180;2023-02-02T01:10:18;94466.50;;;5.53;54.61
21395;BME280;10858;42.714;23.180;2023-02-02T01:12:44;94464.97;;;5.24;53.81
21395;BME280;10858;42.714;23.180;2023-02-02T01:15:11;94462.81;;;5.03;54.44
21395;BME280;10858;42.714;23.180;2023-02-02T01:17:38;94461.19;;;4.88;55.94
21395;BME280;10858;42.714;23.180;2023-02-02T01:20:05;94462.00;;;4.76;55.53
21395;BME280;10858;42.714;23.180;2023-02-02T01:22:32;94460.69;;;4.69;56.27
21395;BME280;10858;42.714;23.180;2023-02-02T01:25:04;94454.16;;;4.62;56.90
21395;BME280;10858;42.714;23.180;2023-02-02T01:27:30;94443.94;;;4.58;57.11
21395;BME280;10858;42.714;23.180;2023-02-02T01:29:56;94450.06;;;4.44;57.87
21395;BME280;10858;42.714;23.180;2023-02-02T01:32:22;94456.56;;;4.39;57.15
21395;BME280;10858;42.714;23.180;2023-02-02T01:34:49;94455.06;;;4.35;57.49
21395;BME280;10858;42.714;23.180;2023-02-02T01:37:15;94463.31;;;4.28;57.11
21395;BME280;10858;42.714;23.180;2023-02-02T01:39:41;94452.50;;;4.33;56.98
21395;BME280;10858;42.714;23.180;2023-02-02T01:42:14;94449.53;;;4.25;57.40
21395;BME280;10858;42.714;23.180;2023-02-02T01:45:16;94451.88;;;4.15;57.97
21395;BME280;10858;42.714;23.180;2023-02-02T01:47:48;94446.00;;;3.98;58.66
21395;BME280;10858;42.714;23.180;2023-02-02T01:50:16;94446.38;;;3.64;59.77
21395;BME280;10858;42.714;23.180;2023-02-02T01:52:47;94442.63;;;3.54;60.28
21395;BME280;10858;42.714;23.180;2023-02-02T01:55:16;94438.84;;;3.29;61.31
21395;BME280;10858;42.714;23.180;2023-02-02T01:57:55;94443.34;;;3.27;61.95
21395;BME280;10858;42.714;23.180;2023-02-02T02:00:23;94439.00;;;3.12;62.50
21395;BME280;10858;42.714;23.180;2023-02-02T02:02:54;94439.72;;;3.00;62.84
21395;BME280;10858;42.714;23.180;2023-02-02T02:05:30;94437.88;;;2.87;63.47
21395;BME280;10858;42.714;23.180;2023-02-02T02:08:07;94447.34;;;2.59;64.39
21395;BME280;10858;42.714;23.180;2023-02-02T02:10:35;94447.44;;;2.58;64.94
21395;BME280;10858;42.714;23.180;2023-02-02T02:13:01;94450.13;;;2.41;65.19
21395;BME280;10858;42.714;23.180;2023-02-02T02:15:32;94442.53;;;2.21;66.14
21395;BME280;10858;42.714;23.180;2023-02-02T02:18:43;94448.44;;;2.09;66.60
21395;BME280;10858;42.714;23.180;2023-02-02T02:21:28;94447.78;;;2.05;67.39
21395;BME280;10858;42.714;23.180;2023-02-02T02:37:05;94438.50;;;2.31;67.49
21395;BME280;10858;42.714;23.180;2023-02-02T02:39:18;94442.22;;;1.96;69.01
21395;BME280;10858;42.714;23.180;2023-02-02T02:41:51;94433.69;;;1.92;69.12
21395;BME280;10858;42.714;23.180;2023-02-02T02:44:19;94433.31;;;1.67;70.38
21395;BME280;10858;42.714;23.180;2023-02-02T02:46:47;94432.97;;;1.57;69.89
21395;BME280;10858;42.714;23.180;2023-02-02T02:49:14;94434.19;;;1.50;70.36
21395;BME280;10858;42.714;23.180;2023-02-02T02:51:46;94430.78;;;1.33;71.65
21395;BME280;10858;42.714;23.180;2023-02-02T02:54:19;94438.63;;;1.65;71.22
21395;BME280;10858;42.714;23.180;2023-02-02T03:07:51;94416.59;;;3.07;65.02
21395;BME280;10858;42.714;23.180;2023-02-02T03:10:23;94428.94;;;3.34;63.77
21395;BME280;10858;42.714;23.180;2023-02-02T03:12:51;94427.84;;;3.53;62.85
21395;BME280;10858;42.714;23.180;2023-02-02T03:15:18;94427.66;;;3.56;62.34
21395;BME280;10858;42.714;23.180;2023-02-02T03:17:46;94421.47;;;3.42;62.93
21395;BME280;10858;42.714;23.180;2023-02-02T03:20:14;94421.19;;;3.03;64.37
21395;BME280;10858;42.714;23.180;2023-02-02T03:22:40;94423.66;;;3.06;64.32
21395;BME280;10858;42.714;23.180;2023-02-02T03:25:08;94413.47;;;3.16;64.00
21395;BME280;10858;42.714;23.180;2023-02-02T03:27:37;94421.63;;;3.25;63.68
21395;BME280;10858;42.714;23.180;2023-02-02T03:30:05;94422.75;;;3.35;63.46
21395;BME280;10858;42.714;23.180;2023-02-02T03:32:33;94425.56;;;3.18;63.76
21395;BME280;10858;42.714;23.180;2023-02-02T03:34:59;94423.09;;;3.15;64.09
21395;BME280;10858;42.714;23.180;2023-02-02T03:37:26;94423.47;;;3.09;64.04
21395;BME280;10858;42.714;23.180;2023-02-02T03:39:52;94423.28;;;3.12;64.29
21395;BME280;10858;42.714;23.180;2023-02-02T03:42:18;94424.47;;;3.07;64.43
21395;BME280;10858;42.714;23.180;2023-02-02T03:44:44;94421.31;;;3.16;64.00
21395;BME280;10858;42.714;23.180;2023-02-02T03:47:10;94429.00;;;2.89;64.87
21395;BME280;10858;42.714;23.180;2023-02-02T03:49:37;94426.22;;;2.92;64.81
21395;BME280;10858;42.714;23.180;2023-02-02T03:52:03;94419.16;;;3.08;64.30
21395;BME280;10858;42.714;23.180;2023-02-02T03:54:30;94424.81;;;3.16;63.68
21395;BME280;10858;42.714;23.180;2023-02-02T03:56:56;94432.09;;;3.25;63.73
21395;BME280;10858;42.714;23.180;2023-02-02T03:59:23;94425.63;;;3.17;63.76
21395;BME280;10858;42.714;23.180;2023-02-02T04:01:49;94432.31;;;3.22;63.60
21395;BME280;10858;42.714;23.180;2023-02-02T04:04:16;94435.28;;;3.16;63.80
21395;BME280;10858;42.714;23.180;2023-02-02T04:06:42;94442.19;;;3.17;63.99
21395;BME280;10858;42.714;23.180;2023-02-02T04:09:08;94439.00;;;3.12;64.17
21395;BME280;10858;42.714;23.180;2023-02-02T04:11:34;94439.94;;;3.11;64.14
21395;BME280;10858;42.714;23.180;2023-02-02T04:14:00;94442.34;;;3.00;64.23
21395;BME280;10858;42.714;23.180;2023-02-02T04:16:27;94446.84;;;2.98;64.62
21395;BME280;10858;42.714;23.180;2023-02-02T04:18:53;94453.97;;;2.81;64.75
21395;BME280;10858;42.714;23.180;2023-02-02T04:21:19;94456.00;;;2.76;65.01
21395;BME280;10858;42.714;23.180;2023-02-02T04:23:45;94458.94;;;2.85;64.47
21395;BME280;10858;42.714;23.180;2023-02-02T04:26:11;94460.50;;;2.74;65.30
21395;BME280;10858;42.714;23.180;2023-02-02T04:28:37;94456.16;;;2.73;65.07
21395;BME280;10858;42.714;23.180;2023-02-02T04:31:04;94444.53;;;2.63;65.40
21395;BME280;10858;42.714;23.180;2023-02-02T04:33:30;94448.28;;;2.43;65.70
21395;BME280;10858;42.714;23.180;2023-02-02T04:35:56;94450.47;;;2.19;66.75
21395;BME280;10858;42.714;23.180;2023-02-02T04:38:22;94460.00;;;1.89;67.92
21395;BME280;10858;42.714;23.180;2023-02-02T04:40:48;94462.03;;;2.00;68.17
21395;BME280;10858;42.714;23.180;2023-02-02T04:43:15;94458.41;;;2.18;67.35
21395;BME280;10858;42.714;23.180;2023-02-02T04:45:41;94467.19;;;2.17;67.37
21395;BME280;10858;42.714;23.180;2023-02-02T04:48:07;94463.47;;;1.90;68.17
21395;BME280;10858;42.714;23.180;2023-02-02T04:50:33;94458.91;;;1.60;69.50
21395;BME280;10858;42.714;23.180;2023-02-02T04:53:00;94457.34;;;1.58;69.11
21395;BME280;10858;42.714;23.180;2023-02-02T04:55:26;94458.56;;;1.18;71.00
21395;BME280;10858;42.714;23.180;2023-02-02T04:57:52;94463.28;;;1.27;71.05
21395;BME280;10858;42.714;23.180;2023-02-02T05:00:18;94452.00;;;1.27;70.86
21395;BME280;10858;42.714;23.180;2023-02-02T05:02:45;94467.81;;;1.41;70.03
21395;BME280;10858;42.714;23.180;2023-02-02T05:05:13;94463.75;;;1.35;69.57
21395;BME280;10858;42.714;23.180;2023-02-02T05:07:39;94471.38;;;1.06;71.24
21395;BME280;10858;42.714;23.180;2023-02-02T05:10:06;94479.16;;;0.90;71.75
21395;BME280;10858;42.714;23.180;2023-02-02T05:12:32;94476.84;;;1.01;70.77
21395;BME280;10858;42.714;23.180;2023-02-02T05:14:59;94477.91;;;0.80;71.71
21395;BME280;10858;42.714;23.180;2023-02-02T05:17:26;94471.59;;;0.67;72.02
21395;BME280;10858;42.714;23.180;2023-02-02T05:19:52;94467.72;;;0.57;73.40
21395;BME280;10858;42.714;23.180;2023-02-02T05:22:18;94470.03;;;0.46;73.78
21395;BME280;10858;42.714;23.180;2023-02-02T05:24:44;94469.47;;;0.39;73.90
21395;BME280;10858;42.714;23.180;2023-02-02T05:27:11;94475.84;;;0.51;74.28
21395;BME280;10858;42.714;23.180;2023-02-02T05:29:37;94468.97;;;0.50;74.27
21395;BME280;10858;42.714;23.180;2023-02-02T05:32:04;94477.41;;;0.55;73.94
21395;BME280;10858;42.714;23.180;2023-02-02T05:34:30;94474.56;;;0.59;73.63
21395;BME280;10858;42.714;23.180;2023-02-02T05:36:56;94476.69;;;0.70;73.42
21395;BME280;10858;42.714;23.180;2023-02-02T05:39:22;94475.13;;;0.66;72.97
21395;BME280;10858;42.714;23.180;2023-02-02T05:41:48;94473.28;;;0.85;73.00
21395;BME280;10858;42.714;23.180;2023-02-02T05:44:15;94467.16;;;1.20;71.40
21395;BME280;10858;42.714;23.180;2023-02-02T05:46:41;94467.13;;;1.37;70.89
21395;BME280;10858;42.714;23.180;2023-02-02T05:49:09;94469.50;;;1.74;69.02
21395;BME280;10858;42.714;23.180;2023-02-02T05:51:41;94471.00;;;2.27;66.92
21395;BME280;10858;42.714;23.180;2023-02-02T05:54:09;94469.97;;;2.45;66.13
21395;BME280;10858;42.714;23.180;2023-02-02T05:56:35;94464.81;;;2.43;65.78
21395;BME280;10858;42.714;23.180;2023-02-02T05:59:01;94471.78;;;2.44;65.69
21395;BME280;10858;42.714;23.180;2023-02-02T06:01:32;94477.75;;;2.15;66.82
21395;BME280;10858;42.714;23.180;2023-02-02T06:03:59;94470.91;;;2.13;66.33
21395;BME280;10858;42.714;23.180;2023-02-02T06:06:25;94475.63;;;2.53;65.09
21395;BME280;10858;42.714;23.180;2023-02-02T06:08:51;94475.09;;;2.78;63.74
21395;BME280;10858;42.714;23.180;2023-02-02T06:11:18;94472.44;;;2.93;62.98
21395;BME280;10858;42.714;23.180;2023-02-02T06:13:44;94472.88;;;3.15;62.10
21395;BME280;10858;42.714;23.180;2023-02-02T06:16:11;94474.69;;;3.29;61.77
21395;BME280;10858;42.714;23.180;2023-02-02T06:18:37;94482.31;;;3.47;61.33
21395;BME280;10858;42.714;23.180;2023-02-02T06:21:04;94487.31;;;3.52;61.02
21395;BME280;10858;42.714;23.180;2023-02-02T06:23:33;94492.31;;;3.71;59.82
21395;BME280;10858;42.714;23.180;2023-02-02T06:25:59;94501.31;;;3.81;59.48
21395;BME280;10858;42.714;23.180;2023-02-02T06:28:26;94498.78;;;4.07;58.55
21395;BME280;10858;42.714;23.180;2023-02-02T06:30:52;94503.91;;;4.37;58.39
21395;BME280;10858;42.714;23.180;2023-02-02T06:33:18;94513.47;;;4.38;58.27
21395;BME280;10858;42.714;23.180;2023-02-02T06:35:44;94515.91;;;4.27;57.97
21395;BME280;10858;42.714;23.180;2023-02-02T06:38:11;94516.19;;;4.51;57.50
21395;BME280;10858;42.714;23.180;2023-02-02T06:40:37;94517.41;;;4.31;58.32
21395;BME280;10858;42.714;23.180;2023-02-02T06:43:03;94522.38;;;4.50;57.71
21395;BME280;10858;42.714;23.180;2023-02-02T06:45:30;94513.19;;;4.57;56.80
21395;BME280;10858;42.714;23.180;2023-02-02T06:48:00;94516.84;;;4.54;57.83
21395;BME280;10858;42.714;23.180;2023-02-02T06:50:39;94520.03;;;4.45;58.15
21395;BME280;10858;42.714;23.180;2023-02-02T06:53:05;94525.53;;;4.69;56.49
21395;BME280;10858;42.714;23.180;2023-02-02T06:55:32;94525.69;;;4.80;56.68
21395;BME280;10858;42.714;23.180;2023-02-02T06:57:59;94523.88;;;4.94;55.49
21395;BME280;10858;42.714;23.180;2023-02-02T07:00:26;94528.63;;;5.02;55.47
21395;BME280;10858;42.714;23.180;2023-02-02T07:02:54;94522.81;;;5.24;55.20
21395;BME280;10858;42.714;23.180;2023-02-02T07:05:20;94522.97;;;5.35;54.90
21395;BME280;10858;42.714;23.180;2023-02-02T07:07:49;94519.38;;;5.36;54.03
21395;BME280;10858;42.714;23.180;2023-02-02T07:10:16;94522.97;;;5.47;53.49
21395;BME280;10858;42.714;23.180;2023-02-02T07:12:44;94517.16;;;5.81;53.50
21395;BME280;10858;42.714;23.180;2023-02-02T07:15:10;94520.38;;;5.99;52.49
21395;BME280;10858;42.714;23.180;2023-02-02T07:17:37;94518.13;;;5.80;53.09
21395;BME280;10858;42.714;23.180;2023-02-02T07:20:03;94527.44;;;5.98;52.61
21395;BME280;10858;42.714;23.180;2023-02-02T07:22:29;94528.59;;;6.07;52.90
21395;BME280;10858;42.714;23.180;2023-02-02T07:24:56;94523.00;;;6.24;53.08
21395;BME280;10858;42.714;23.180;2023-02-02T07:27:22;94525.16;;;6.55;52.53
21395;BME280;10858;42.714;23.180;2023-02-02T07:29:48;94529.84;;;6.88;50.16
21395;BME280;10858;42.714;23.180;2023-02-02T07:32:14;94528.19;;;7.11;49.64
21395;BME280;10858;42.714;23.180;2023-02-02T07:34:41;94524.56;;;6.88;49.98
21395;BME280;10858;42.714;23.180;2023-02-02T07:37:08;94527.19;;;7.01;49.68
21395;BME280;10858;42.714;23.180;2023-02-02T07:39:34;94520.41;;;7.33;49.10
21395;BME280;10858;42.714;23.180;2023-02-02T07:42:01;94512.59;;;6.71;50.90
21395;BME280;10858;42.714;23.180;2023-02-02T07:44:27;94510.94;;;6.94;50.59
21395;BME280;10858;42.714;23.180;2023-02-02T07:46:53;94506.66;;;7.17;49.05
21395;BME280;10858;42.714;23.180;2023-02-02T07:49:20;94493.69;;;7.37;47.96
21395;BME280;10858;42.714;23.180;2023-02-02T07:51:46;94508.47;;;7.04;48.20
21395;BME280;10858;42.714;23.180;2023-02-02T07:54:14;94503.81;;;6.83;50.12
21395;BME280;10858;42.714;23.180;2023-02-02T07:56:40;94495.47;;;7.37;48.73
21395;BME280;10858;42.714;23.180;2023-02-02T07:59:08;94494.19;;;7.88;48.88
21395;BME280;10858;42.714;23.180;2023-02-02T08:01:35;94493.78;;;8.05;46.98
21395;BME280;10858;42.714;23.180;2023-02-02T08:04:01;94501.22;;;8.11;46.96
21395;BME280;10858;42.714;23.180;2023-02-02T08:06:38;94492.75;;;8.41;45.76
21395;BME280;10858;42.714;23.180;2023-02-02T08:09:07;94490.22;;;8.28;46.39
21395;BME280;10858;42.714;23.180;2023-02-02T08:11:34;94490.78;;;8.21;45.92
21395;BME280;10858;42.714;23.180;2023-02-02T08:14:02;94483.72;;;8.21;46.90
21395;BME280;10858;42.714;23.180;2023-02-02T08:16:29;94484.22;;;8.37;46.54
21395;BME280;10858;42.714;23.180;2023-02-02T08:18:56;94488.06;;;8.33;45.61
21395;BME280;10858;42.714;23.180;2023-02-02T08:21:23;94483.63;;;7.88;45.96
21395;BME280;10858;42.714;23.180;2023-02-02T08:23:51;94485.44;;;8.33;46.61
21395;BME280;10858;42.714;23.180;2023-02-02T08:26:21;94481.34;;;8.40;45.89
21395;BME280;10858;42.714;23.180;2023-02-02T08:28:52;94491.78;;;8.42;46.67
21395;BME280;10858;42.714;23.180;2023-02-02T08:31:32;94474.84;;;8.67;46.66
21395;BME280;10858;42.714;23.180;2023-02-02T08:33:58;94475.84;;;9.40;45.10
21395;BME280;10858;42.714;23.180;2023-02-02T08:36:26;94472.88;;;9.65;44.08
21395;BME280;10858;42.714;23.180;2023-02-02T08:38:53;94470.69;;;9.38;44.72
21395;BME280;10858;42.714;23.180;2023-02-02T08:41:22;94465.53;;;9.89;43.42
21395;BME280;10858;42.714;23.180;2023-02-02T08:43:48;94462.69;;;9.81;43.40
21395;BME280;10858;42.714;23.180;2023-02-02T08:46:17;94458.59;;;9.25;45.35
21395;BME280;10858;42.714;23.180;2023-02-02T08:48:44;94448.97;;;9.76;43.74
21395;BME280;10858;42.714;23.180;2023-02-02T08:51:13;94447.59;;;10.83;41.05
21395;BME280;10858;42.714;23.180;2023-02-02T08:53:40;94442.25;;;11.23;41.02
21395;BME280;10858;42.714;23.180;2023-02-02T08:56:10;94444.63;;;11.26;40.04
21395;BME280;10858;42.714;23.180;2023-02-02T08:58:37;94438.28;;;10.98;39.57
21395;BME280;10858;42.714;23.180;2023-02-02T09:01:15;94444.91;;;9.72;41.99
21395;BME280;10858;42.714;23.180;2023-02-02T09:03:42;94431.78;;;9.91;43.21
21395;BME280;10858;42.714;23.180;2023-02-02T09:06:17;94438.00;;;10.01;43.43
21395;BME280;10858;42.714;23.180;2023-02-02T09:08:44;94432.81;;;10.20;43.37
21395;BME280;10858;42.714;23.180;2023-02-02T09:11:13;94444.09;;;10.43;42.57
21395;BME280;10858;42.714;23.180;2023-02-02T09:13:41;94428.88;;;10.36;42.80
21395;BME280;10858;42.714;23.180;2023-02-02T09:16:11;94425.38;;;10.35;43.08
21395;BME280;10858;42.714;23.180;2023-02-02T09:18:38;94429.66;;;10.06;43.67
21395;BME280;10858;42.714;23.180;2023-02-02T09:21:07;94421.56;;;10.07;43.39
21395;BME280;10858;42.714;23.180;2023-02-02T09:23:36;94421.56;;;10.07;43.93
21395;BME280;10858;42.714;23.180;2023-02-02T09:26:28;94421.97;;;10.23;43.43
21395;BME280;10858;42.714;23.180;2023-02-02T09:28:56;94413.53;;;10.39;42.70
21395;BME280;10858;42.714;23.180;2023-02-02T09:31:24;94419.34;;;10.73;42.02
21395;BME280;10858;42.714;23.180;2023-02-02T09:33:50;94417.03;;;10.89;42.66
21395;BME280;10858;42.714;23.180;2023-02-02T09:36:19;94410.16;;;10.86;42.23
21395;BME280;10858;42.714;23.180;2023-02-02T09:38:46;94413.66;;;10.77;43.11
21395;BME280;10858;42.714;23.180;2023-02-02T09:46:55;94406.63;;;11.54;41.59
21395;BME280;10858;42.714;23.180;2023-02-02T09:49:47;94394.91;;;11.76;41.11
21395;BME280;10858;42.714;23.180;2023-02-02T09:55:24;94400.19;;;11.85;41.38
21395;BME280;10858;42.714;23.180;2023-02-02T09:58:12;94395.41;;;11.03;43.16
21395;BME280;10858;42.714;23.180;2023-02-02T10:00:50;94372.75;;;10.89;43.38
21395;BME280;10858;42.714;23.180;2023-02-02T10:06:01;94382.72;;;10.48;44.62
21395;BME280;10858;42.714;23.180;2023-02-02T10:08:53;94373.06;;;10.47;43.04
21395;BME280;10858;42.714;23.180;2023-02-02T10:11:50;94377.53;;;10.95;42.75
21395;BME280;10858;42.714;23.180;2023-02-02T10:14:30;94356.78;;;10.21;43.93
21395;BME280;10858;42.714;23.180;2023-02-02T10:17:04;94355.59;;;11.32;41.88
21395;BME280;10858;42.714;23.180;2023-02-02T10:19:33;94344.84;;;11.52;41.13
21395;BME280;10858;42.714;23.180;2023-02-02T10:22:08;94358.94;;;11.81;42.19
21395;BME280;10858;42.714;23.180;2023-02-02T10:24:36;94355.47;;;11.52;42.10
21395;BME280;10858;42.714;23.180;2023-02-02T10:27:05;94355.44;;;11.71;42.80
21395;BME280;10858;42.714;23.180;2023-02-02T10:32:22;94345.84;;;11.32;41.37
21395;BME280;10858;42.714;23.180;2023-02-02T10:43:12;94305.00;;;10.95;42.16
21395;BME280;10858;42.714;23.180;2023-02-02T10:46:03;94300.03;;;11.76;41.26
21395;BME280;10858;42.714;23.180;2023-02-02T10:48:34;94300.56;;;12.71;39.34
21395;BME280;10858;42.714;23.180;2023-02-02T10:51:12;94279.06;;;12.64;39.01
21395;BME280;10858;42.714;23.180;2023-02-02T10:53:44;94280.31;;;12.43;40.50
21395;BME280;10858;42.714;23.180;2023-02-02T10:56:12;94265.84;;;12.90;38.01
21395;BME280;10858;42.714;23.180;2023-02-02T11:01:33;94258.84;;;11.53;40.88
21395;BME280;10858;42.714;23.180;2023-02-02T11:03:59;94268.81;;;11.13;41.74
21395;BME280;10858;42.714;23.180;2023-02-02T11:06:43;94273.00;;;11.25;41.05
21395;BME280;10858;42.714;23.180;2023-02-02T11:09:40;94278.88;;;11.38;41.68
21395;BME280;10858;42.714;23.180;2023-02-02T11:12:30;94272.31;;;11.23;42.20
21395;BME280;10858;42.714;23.180;2023-02-02T11:15:03;94274.84;;;11.15;43.01
21395;BME280;10858;42.714;23.180;2023-02-02T11:17:31;94278.63;;;10.84;42.45
21395;BME280;10858;42.714;23.180;2023-02-02T11:19:58;94260.84;;;10.46;42.96
21395;BME280;10858;42.714;23.180;2023-02-02T11:24:54;94268.78;;;11.42;41.14
21395;BME280;10858;42.714;23.180;2023-02-02T11:27:41;94269.09;;;11.20;42.41
21395;BME280;10858;42.714;23.180;2023-02-02T11:30:29;94262.56;;;11.60;41.03
21395;BME280;10858;42.714;23.180;2023-02-02T11:32:56;94262.69;;;11.22;41.58
21395;BME280;10858;42.714;23.180;2023-02-02T11:35:24;94254.91;;;11.57;41.31
21395;BME280;10858;42.714;23.180;2023-02-02T11:37:57;94259.19;;;11.22;41.49
21395;BME280;10858;42.714;23.180;2023-02-02T11:40:33;94255.59;;;11.69;40.13
21395;BME280;10858;42.714;23.180;2023-02-02T11:43:04;94250.94;;;11.15;40.65
21395;BME280;10858;42.714;23.180;2023-02-02T11:45:40;94250.13;;;10.86;41.32
21395;BME280;10858;42.714;23.180;2023-02-02T11:48:19;94244.66;;;10.68;40.13
21395;BME280;10858;42.714;23.180;2023-02-02T11:50:56;94250.53;;;10.53;41.31
21395;BME280;10858;42.714;23.180;2023-02-02T11:56:05;94248.75;;;10.82;40.96
21395;BME280;10858;42.714;23.180;2023-02-02T11:58:49;94247.00;;;11.38;39.24
21395;BME280;10858;42.714;23.180;2023-02-02T12:01:44;94228.75;;;11.72;37.11
21395;BME280;10858;42.714;23.180;2023-02-02T12:06:43;94234.53;;;11.48;37.64
21395;BME280;10858;42.714;23.180;2023-02-02T12:09:23;94237.72;;;10.96;38.47
21395;BME280;10858;42.714;23.180;2023-02-02T12:12:23;94243.00;;;10.77;39.89
21395;BME280;10858;42.714;23.180;2023-02-02T12:31:17;94242.03;;;10.59;40.96
21395;BME280;10858;42.714;23.180;2023-02-02T12:33:52;94237.00;;;10.56;40.84
21395;BME280;10858;42.714;23.180;2023-02-02T12:36:35;94238.25;;;10.61;40.76
21395;BME280;10858;42.714;23.180;2023-02-02T12:45:18;94232.75;;;10.24;41.00
21395;BME280;10858;42.714;23.180;2023-02-02T12:53:19;94224.84;;;9.94;40.99
21395;BME280;10858;42.714;23.180;2023-02-02T12:58:49;94217.44;;;9.88;40.91
21395;BME280;10858;42.714;23.180;2023-02-02T13:03:59;94214.13;;;11.85;38.12
21395;BME280;10858;42.714;23.180;2023-02-02T13:09:23;94218.22;;;12.87;35.67
21395;BME280;10858;42.714;23.180;2023-02-02T13:11:52;94223.84;;;13.19;33.75
21395;BME280;10858;42.714;23.180;2023-02-02T13:14:34;94229.44;;;12.28;36.15
21395;BME280;10858;42.714;23.180;2023-02-02T13:17:27;94216.59;;;11.60;37.58
21395;BME280;10858;42.714;23.180;2023-02-02T13:19:59;94217.28;;;11.16;39.34
21395;BME280;10858;42.714;23.180;2023-02-02T13:22:33;94225.09;;;11.17;38.81
21395;BME280;10858;42.714;23.180;2023-02-02T13:25:03;94226.22;;;10.38;38.92
21395;BME280;10858;42.714;23.180;2023-02-02T13:27:31;94212.44;;;10.54;38.09
21395;BME280;10858;42.714;23.180;2023-02-02T13:30:04;94217.03;;;10.99;37.85
21395;BME280;10858;42.714;23.180;2023-02-02T13:32:38;94216.84;;;11.10;38.40
21395;BME280;10858;42.714;23.180;2023-02-02T13:35:19;94208.50;;;10.39;39.31
21395;BME280;10858;42.714;23.180;2023-02-02T13:40:50;94201.66;;;9.77;42.55
21395;BME280;10858;42.714;23.180;2023-02-02T13:43:26;94214.34;;;10.33;41.18
21395;BME280;10858;42.714;23.180;2023-02-02T13:46:16;94208.25;;;10.42;40.34
21395;BME280;10858;42.714;23.180;2023-02-02T14:02:33;94200.59;;;9.89;49.07
21395;BME280;10858;42.714;23.180;2023-02-02T14:05:02;94187.78;;;10.04;48.55
21395;BME280;10858;42.714;23.180;2023-02-02T14:07:44;94212.19;;;9.28;50.98
21395;BME280;10858;42.714;23.180;2023-02-02T14:10:24;94203.34;;;9.18;51.25
21395;BME280;10858;42.714;23.180;2023-02-02T14:12:52;94212.59;;;8.82;51.93
21395;BME280;10858;42.714;23.180;2023-02-02T14:15:36;94220.53;;;8.30;52.77
21395;BME280;10858;42.714;23.180;2023-02-02T14:18:03;94222.63;;;8.15;53.91
21395;BME280;10858;42.714;23.180;2023-02-02T14:20:44;94241.34;;;8.23;54.96
21395;BME280;10858;42.714;23.180;2023-02-02T14:23:51;94235.50;;;7.98;56.27
21395;BME280;10858;42.714;23.180;2023-02-02T14:26:40;94253.94;;;7.55;58.56
21395;BME280;10858;42.714;23.180;2023-02-02T14:32:27;94293.19;;;7.03;62.33
21395;BME280;10858;42.714;23.180;2023-02-02T14:38:11;94342.31;;;5.10;75.49
21395;BME280;10858;42.714;23.180;2023-02-02T14:41:17;94339.22;;;4.78;78.24
21395;BME280;10858;42.714;23.180;2023-02-02T14:44:05;94348.44;;;4.71;80.21
21395;BME280;10858;42.714;23.180;2023-02-02T14:46:39;94352.66;;;4.74;80.86
21395;BME280;10858;42.714;23.180;2023-02-02T14:49:14;94375.22;;;4.90;81.08
21395;BME280;10858;42.714;23.180;2023-02-02T14:51:47;94384.66;;;4.80;82.33
21395;BME280;10858;42.714;23.180;2023-02-02T14:54:37;94396.13;;;4.65;81.79
21395;BME280;10858;42.714;23.180;2023-02-02T14:57:20;94404.81;;;4.26;83.14
21395;BME280;10858;42.714;23.180;2023-02-02T14:59:49;94425.00;;;3.98;83.55
21395;BME280;10858;42.714;23.180;2023-02-02T15:02:18;94420.25;;;3.90;84.27
21395;BME280;10858;42.714;23.180;2023-02-02T15:04:45;94426.25;;;3.64;84.70
21395;BME280;10858;42.714;23.180;2023-02-02T15:09:53;94435.31;;;3.30;86.04
21395;BME280;10858;42.714;23.180;2023-02-02T15:12:39;94449.81;;;3.36;86.29
21395;BME280;10858;42.714;23.180;2023-02-02T15:15:23;94466.59;;;3.47;85.72
21395;BME280;10858;42.714;23.180;2023-02-02T15:18:02;94485.50;;;3.38;86.27